Accueil
METAR-TAF:

METAR-TAF

Aéroports :

Aéroport de Guernesey

Guernesey,

latitude: 49-26N, longitude: 002-36W, altitude: 102 m

Observation

Le bulletin a été fait il y a 26 minutes, à 05:50 UTC
Vent 2 kt de nord-est
Température 4°C
Humidité 70%
Pression 1024 hPa
Visibilité 10 km ou plus
Nuages fragmentés à une hauteur de 3000 ft

METAR: EGJB 080550Z 04002KT 9999 BKN030 04/M01 Q1024

Heure: 06:16 (06:16 UTC)

Prévision

Le bulletin a été fait il y a 1 heure et 17 minutes, à 04:59 UTC
Prévision valable du 08 à 06 UTC au 08 à 15 UTC
Vent 4 kt de nord-est
Visibilité 10 km ou plus
Nuages fragmentés à une hauteur de 3500 ft

TAF: EGJB 080459Z 0806/0815 04004KT 9999 BKN035

Observations et prévisions météorologiques de plus de 4000 aéroports (messages METAR et TAF).

Les stations disponibles sont représentées par des disques jaunes et rouges sur la carte.

Passer la souris dessus pour voir le nom de la station.

Cliquer dessus pour voir les observations et prévisions météorologiques.

Pour changer de carte: cliquez sur les boutons verts avec une croix noire pour zoomer, sur le bouton vert avec un tiret pour effectuer un zoom arrière, ou sur les flèches vertes pour les cartes adjacentes.


METAR-TAF: